Time,TemperatureF,DewpointF,PressureIn,WindDirection,WindDirectionDegrees,WindSpeedMPH,WindSpeedGustMPH,Humidity,HourlyPrecipIn,Conditions,Clouds,dailyrainin,SoftwareType,DateUTC
2013-01-19 00:03:00,36.3,25.3,29.77,SE,133,0.0,0.0,64,0.00,,---,0.00,VWS V13.00,2013-01-19 09:03:00,
2013-01-19 00:08:00,36.3,25.3,29.77,SSE,151,0.0,0.0,64,0.00,,---,0.00,VWS V13.00,2013-01-19 09:08:00,
2013-01-19 00:13:00,36.3,25.0,29.74,East,89,0.0,0.0,63,0.00,,---,0.00,VWS V13.00,2013-01-19 09:13:00,
2013-01-19 00:18:00,36.7,25.3,29.74,ESE,106,0.0,0.0,63,0.00,,---,0.00,VWS V13.00,2013-01-19 09:18:00,
2013-01-19 00:23:00,36.5,25.1,29.74,East,86,0.0,0.0,63,0.00,,---,0.00,VWS V13.00,2013-01-19 09:23:00,
2013-01-19 00:28:00,36.5,25.1,29.74,SE,135,0.0,0.0,63,0.00,,---,0.00,VWS V13.00,2013-01-19 09:28:00,
2013-01-19 00:33:00,36.5,25.5,29.74,SE,131,0.0,0.0,64,0.00,,---,0.00,VWS V13.00,2013-01-19 09:33:00,
2013-01-19 00:38:00,36.5,25.5,29.77,SE,146,0.0,0.0,64,0.00,,---,0.00,VWS V13.00,2013-01-19 09:38:00,
2013-01-19 00:43:00,36.7,26.4,29.77,East,87,0.0,0.0,66,0.00,,---,0.00,VWS V13.00,2013-01-19 09:43:00,
2013-01-19 00:48:00,36.7,26.4,29.77,SSW,192,0.0,0.0,66,0.00,,---,0.00,VWS V13.00,2013-01-19 09:48:00,
2013-01-19 00:53:00,36.7,26.8,29.77,East,101,0.0,0.0,67,0.00,,---,0.00,VWS V13.00,2013-01-19 09:53:00,
2013-01-19 00:58:00,36.7,27.1,29.74,ESE,104,0.0,0.0,68,0.00,,---,0.00,VWS V13.00,2013-01-19 09:58:00,
2013-01-19 01:03:00,36.7,26.8,29.74,ESE,102,0.0,0.0,67,0.00,,---,0.00,VWS V13.00,2013-01-19 10:03:00,
2013-01-19 01:08:00,36.9,26.2,29.74,ENE,57,0.0,0.0,65,0.00,,---,0.00,VWS V13.00,2013-01-19 10:08:00,
2013-01-19 01:13:00,36.9,26.9,29.74,SE,126,0.0,0.0,67,0.00,,---,0.00,VWS V13.00,2013-01-19 10:13:00,
2013-01-19 01:18:00,36.7,27.1,29.74,South,176,0.0,0.0,68,0.00,,---,0.00,VWS V13.00,2013-01-19 10:18:00,
2013-01-19 01:23:00,36.5,27.3,29.74,SSE,157,0.0,0.0,69,0.00,,---,0.00,VWS V13.00,2013-01-19 10:23:00,
2013-01-19 01:28:00,36.5,27.3,29.74,SE,145,0.0,0.0,69,0.00,,---,0.00,VWS V13.00,2013-01-19 10:28:00,
2013-01-19 01:33:00,36.7,27.8,29.74,East,82,0.0,0.0,70,0.00,,---,0.00,VWS V13.00,2013-01-19 10:33:00,
2013-01-19 01:38:00,36.5,27.3,29.74,ENE,68,0.0,0.0,69,0.00,,---,0.00,VWS V13.00,2013-01-19 10:38:00,
2013-01-19 01:43:00,36.5,27.7,29.74,SE,146,0.0,0.0,70,0.00,,---,0.00,VWS V13.00,2013-01-19 10:43:00,
2013-01-19 01:48:00,36.3,28.2,29.74,South,189,0.0,0.0,72,0.00,,---,0.00,VWS V13.00,2013-01-19 10:48:00,
2013-01-19 01:53:00,36.1,28.7,29.74,South,169,0.0,0.0,74,0.00,,---,0.00,VWS V13.00,2013-01-19 10:53:00,
2013-01-19 01:58:00,36.0,28.8,29.74,South,184,0.0,0.0,75,0.00,,---,0.00,VWS V13.00,2013-01-19 10:58:00,
2013-01-19 02:03:00,36.0,29.1,29.74,SE,138,0.0,0.0,76,0.00,,---,0.00,VWS V13.00,2013-01-19 11:03:00,
2013-01-19 02:08:00,35.8,29.0,29.74,South,176,0.0,0.0,76,0.00,,---,0.00,VWS V13.00,2013-01-19 11:08:00,
2013-01-19 02:13:00,35.8,29.3,29.74,ENE,76,0.0,0.0,77,0.00,,---,0.00,VWS V13.00,2013-01-19 11:13:00,
2013-01-19 03:47:00,36.7,28.9,29.71,SSE,156,0.0,0.0,73,0.00,,---,0.00,VWS V13.00,2013-01-19 12:47:00,
2013-01-19 03:48:00,36.7,28.9,29.71,SSE,156,0.0,0.0,73,0.00,,---,0.00,VWS V13.00,2013-01-19 12:48:00,
2013-01-19 03:53:00,36.9,29.4,29.71,ENE,72,0.0,0.0,74,0.00,,---,0.00,VWS V13.00,2013-01-19 12:53:00,
2013-01-19 03:58:00,36.9,29.4,29.71,East,83,0.0,0.0,74,0.00,,---,0.00,VWS V13.00,2013-01-19 12:58:00,
2013-01-19 04:03:00,37.0,28.9,29.71,SE,136,0.0,0.0,72,0.00,,---,0.00,VWS V13.00,2013-01-19 13:03:00,
2013-01-19 04:08:00,37.0,28.5,29.71,ESE,122,0.0,0.0,71,0.00,,---,0.00,VWS V13.00,2013-01-19 13:08:00,
2013-01-19 04:13:00,37.0,29.2,29.71,SE,142,0.0,0.0,73,0.00,,---,0.00,VWS V13.00,2013-01-19 13:13:00,
2013-01-19 04:18:00,36.9,29.4,29.71,SSE,155,0.0,0.0,74,0.00,,---,0.00,VWS V13.00,2013-01-19 13:18:00,
2013-01-19 04:23:00,36.7,29.8,29.71,SE,137,0.0,0.0,76,0.00,,---,0.00,VWS V13.00,2013-01-19 13:23:00,
2013-01-19 04:28:00,36.7,30.5,29.71,NE,43,0.0,0.0,78,0.00,,---,0.00,VWS V13.00,2013-01-19 13:28:00,
2013-01-19 04:33:00,36.5,30.9,29.71,ENE,63,0.0,0.0,80,0.00,,---,0.00,VWS V13.00,2013-01-19 13:33:00,
2013-01-19 04:38:00,36.5,31.2,29.71,SSE,147,0.0,0.0,81,0.00,,---,0.00,VWS V13.00,2013-01-19 13:38:00,
2013-01-19 04:43:00,36.5,31.2,29.68,SE,136,0.0,0.0,81,0.00,,---,0.00,VWS V13.00,2013-01-19 13:43:00,
2013-01-19 04:48:00,36.7,31.7,29.68,ENE,76,0.0,0.0,82,0.00,,---,0.00,VWS V13.00,2013-01-19 13:48:00,
2013-01-19 04:53:00,36.9,31.9,29.68,SE,129,0.0,0.0,82,0.00,,---,0.00,VWS V13.00,2013-01-19 13:53:00,
2013-01-19 04:58:00,36.9,31.6,29.68,East,91,0.0,0.0,81,0.00,,---,0.00,VWS V13.00,2013-01-19 13:58:00,
2013-01-19 05:03:00,36.9,31.6,29.68,NE,48,0.0,0.0,81,0.00,,---,0.00,VWS V13.00,2013-01-19 14:03:00,
2013-01-19 05:08:00,36.9,31.6,29.68,ENE,65,0.0,0.0,81,0.00,,---,0.00,VWS V13.00,2013-01-19 14:08:00,
2013-01-19 05:13:00,36.9,31.3,29.68,ENE,76,0.0,0.0,80,0.00,,---,0.00,VWS V13.00,2013-01-19 14:13:00,
2013-01-19 05:18:00,37.0,31.5,29.68,ENE,74,0.0,0.0,80,0.00,,---,0.00,VWS V13.00,2013-01-19 14:18:00,
2013-01-19 05:23:00,37.0,31.5,29.68,NE,51,0.0,0.0,80,0.00,,---,0.00,VWS V13.00,2013-01-19 14:23:00,
2013-01-19 05:28:00,37.2,31.9,29.68,SE,146,0.0,0.0,81,0.00,,---,0.00,VWS V13.00,2013-01-19 14:28:00,
2013-01-19 05:33:00,37.2,31.9,29.68,ESE,121,0.0,0.0,81,0.00,,---,0.00,VWS V13.00,2013-01-19 14:33:00,
2013-01-19 05:38:00,37.2,31.9,29.68,SE,138,0.0,0.0,81,0.00,,---,0.00,VWS V13.00,2013-01-19 14:38:00,
2013-01-19 05:43:00,37.2,31.9,29.68,ENE,70,0.0,0.0,81,0.00,,---,0.00,VWS V13.00,2013-01-19 14:43:00,
2013-01-19 05:48:00,37.2,32.2,29.68,ENE,69,0.0,0.0,82,0.00,,---,0.00,VWS V13.00,2013-01-19 14:48:00,
2013-01-19 05:53:00,37.2,32.5,29.68,SSE,150,0.0,0.0,83,0.00,,---,0.00,VWS V13.00,2013-01-19 14:53:00,
2013-01-19 05:58:00,37.2,32.5,29.68,South,170,0.0,0.0,83,0.00,,---,0.00,VWS V13.00,2013-01-19 14:58:00,
2013-01-19 06:03:00,37.2,32.8,29.68,ESE,119,0.0,0.0,84,0.00,,---,0.00,VWS V13.00,2013-01-19 15:03:00,
2013-01-19 06:08:00,37.2,33.1,29.68,ESE,120,0.0,0.0,85,0.00,,---,0.00,VWS V13.00,2013-01-19 15:08:00,
2013-01-19 06:13:00,37.0,33.0,29.68,East,88,0.0,0.0,85,0.00,,---,0.00,VWS V13.00,2013-01-19 15:13:00,
2013-01-19 06:18:00,37.0,33.0,29.68,ENE,74,0.0,0.0,85,0.00,,---,0.00,VWS V13.00,2013-01-19 15:18:00,
2013-01-19 06:23:00,36.9,32.8,29.68,East,98,0.0,0.0,85,0.00,,---,0.00,VWS V13.00,2013-01-19 15:23:00,
2013-01-19 06:28:00,37.0,33.0,29.68,SE,126,0.0,0.0,85,0.00,,---,0.00,VWS V13.00,2013-01-19 15:28:00,
2013-01-19 06:33:00,37.2,33.1,29.68,East,101,0.0,0.0,85,0.00,,---,0.00,VWS V13.00,2013-01-19 15:33:00,
2013-01-19 06:38:00,37.2,33.1,29.68,SSE,151,0.0,0.0,85,0.00,,---,0.00,VWS V13.00,2013-01-19 15:38:00,
2013-01-19 06:43:00,37.0,33.0,29.68,ENE,69,0.0,0.0,85,0.00,,---,0.00,VWS V13.00,2013-01-19 15:43:00,
2013-01-19 06:48:00,37.0,33.0,29.68,NE,46,0.0,0.0,85,0.00,,---,0.00,VWS V13.00,2013-01-19 15:48:00,
2013-01-19 06:53:00,37.0,33.5,29.68,SE,146,0.0,0.0,87,0.00,,---,0.00,VWS V13.00,2013-01-19 15:53:00,
2013-01-19 06:58:00,37.0,33.5,29.68,ESE,117,0.0,0.0,87,0.00,,---,0.00,VWS V13.00,2013-01-19 15:58:00,
2013-01-19 07:03:00,37.0,33.5,29.68,ENE,72,0.0,0.0,87,0.00,,---,0.00,VWS V13.00,2013-01-19 16:03:00,
2013-01-19 07:08:00,37.0,33.8,29.68,NE,52,0.0,0.0,88,0.00,,---,0.00,VWS V13.00,2013-01-19 16:08:00,
2013-01-19 07:13:00,37.0,34.1,29.65,ENE,73,0.0,0.0,89,0.00,,---,0.00,VWS V13.00,2013-01-19 16:13:00,
2013-01-19 07:18:00,37.0,34.1,29.65,SW,217,0.0,0.0,89,0.00,,---,0.00,VWS V13.00,2013-01-19 16:18:00,
2013-01-19 07:23:00,37.0,34.1,29.65,South,179,0.0,0.0,89,0.00,,---,0.00,VWS V13.00,2013-01-19 16:23:00,
2013-01-19 07:28:00,37.0,34.1,29.65,ESE,106,0.0,0.0,89,0.00,,---,0.00,VWS V13.00,2013-01-19 16:28:00,
2013-01-19 07:33:00,36.9,33.9,29.65,SE,142,0.0,0.0,89,0.00,,---,0.00,VWS V13.00,2013-01-19 16:33:00,
2013-01-19 07:38:00,36.9,33.9,29.65,ENE,68,0.0,0.0,89,0.00,,---,0.00,VWS V13.00,2013-01-19 16:38:00,
2013-01-19 07:43:00,36.9,33.9,29.65,SSE,163,0.0,0.0,89,0.00,,---,0.00,VWS V13.00,2013-01-19 16:43:00,
2013-01-19 07:48:00,36.9,33.9,29.65,ESE,113,0.0,0.0,89,0.00,,---,0.00,VWS V13.00,2013-01-19 16:48:00,
2013-01-19 07:53:00,36.9,33.9,29.65,ENE,66,0.0,0.0,89,0.00,,---,0.00,VWS V13.00,2013-01-19 16:53:00,
2013-01-19 07:58:00,36.9,33.9,29.65,SSE,161,0.0,0.0,89,0.00,,---,0.00,VWS V13.00,2013-01-19 16:58:00,
2013-01-19 08:03:00,36.9,34.2,29.65,East,83,0.0,0.0,90,0.00,,---,0.00,VWS V13.00,2013-01-19 17:03:00,
2013-01-19 08:08:00,36.9,34.2,29.65,ESE,119,0.0,0.0,90,0.00,,---,0.00,VWS V13.00,2013-01-19 17:08:00,
2013-01-19 08:14:00,36.9,34.2,29.65,SSE,151,0.0,0.0,90,0.00,,---,0.00,VWS V13.00,2013-01-19 17:14:00,
2013-01-19 08:19:00,36.9,34.2,29.65,ESE,110,0.0,0.0,90,0.00,,---,0.00,VWS V13.00,2013-01-19 17:19:00,
2013-01-19 08:24:00,36.7,34.3,29.65,ENE,64,0.0,0.0,91,0.00,,---,0.00,VWS V13.00,2013-01-19 17:24:00,
2013-01-19 08:29:00,36.7,34.3,29.65,SSE,150,0.0,0.0,91,0.00,,---,0.00,VWS V13.00,2013-01-19 17:29:00,
2013-01-19 08:34:00,36.9,34.8,29.65,SE,127,0.0,0.0,92,0.00,,---,0.00,VWS V13.00,2013-01-19 17:34:00,
2013-01-19 08:39:00,36.9,34.8,29.65,South,189,0.0,0.0,92,0.00,,---,0.00,VWS V13.00,2013-01-19 17:39:00,
2013-01-19 08:44:00,36.9,34.8,29.65,South,174,0.0,0.0,92,0.00,,---,0.00,VWS V13.00,2013-01-19 17:44:00,
2013-01-19 08:50:00,36.9,34.8,29.65,ENE,75,0.0,0.0,92,0.00,,---,0.00,VWS V13.00,2013-01-19 17:50:00,
2013-01-19 08:55:00,37.0,34.9,29.65,East,96,0.0,0.0,92,0.00,,---,0.00,VWS V13.00,2013-01-19 17:55:00,
2013-01-19 09:00:00,37.2,35.1,29.65,East,93,0.0,0.0,92,0.00,,---,0.00,VWS V13.00,2013-01-19 18:00:00,
2013-01-19 09:05:00,37.2,35.1,29.65,East,82,0.0,0.0,92,0.00,,---,0.00,VWS V13.00,2013-01-19 18:05:00,
2013-01-19 09:10:00,37.2,35.1,29.65,ENE,58,0.0,0.0,92,0.00,,---,0.00,VWS V13.00,2013-01-19 18:10:00,
2013-01-19 09:15:00,37.2,35.1,29.65,ESE,106,0.0,0.0,92,0.00,,---,0.00,VWS V13.00,2013-01-19 18:15:00,
2013-01-19 09:21:00,37.2,35.1,29.65,SSE,167,0.0,0.0,92,0.00,,---,0.00,VWS V13.00,2013-01-19 18:21:00,
2013-01-19 09:26:00,37.0,34.9,29.65,ENE,64,0.0,0.0,92,0.00,,---,0.00,VWS V13.00,2013-01-19 18:26:00,
2013-01-19 09:31:00,37.0,34.9,29.65,East,93,0.0,0.0,92,0.00,,---,0.00,VWS V13.00,2013-01-19 18:31:00,
2013-01-19 09:37:00,37.2,35.4,29.65,ESE,116,0.0,0.0,93,0.00,,---,0.00,VWS V13.00,2013-01-19 18:37:00,
2013-01-19 09:42:00,37.2,35.4,29.65,SSE,160,0.0,0.0,93,0.00,,---,0.00,VWS V13.00,2013-01-19 18:42:00,
2013-01-19 09:47:00,37.0,34.9,29.65,ESE,110,0.0,0.0,92,0.00,,---,0.00,VWS V13.00,2013-01-19 18:47:00,
2013-01-19 09:52:00,37.0,34.9,29.65,ENE,71,0.0,0.0,92,0.00,,---,0.00,VWS V13.00,2013-01-19 18:52:00,
2013-01-19 09:57:00,36.7,34.3,29.65,ENE,69,0.0,0.0,91,0.00,,---,0.00,VWS V13.00,2013-01-19 18:57:00,
2013-01-19 10:02:00,36.5,34.1,29.65,South,181,0.0,0.0,91,0.00,,---,0.00,VWS V13.00,2013-01-19 19:02:00,
2013-01-19 10:07:00,36.5,34.1,29.65,ESE,104,0.0,0.0,91,0.00,,---,0.00,VWS V13.00,2013-01-19 19:07:00,
2013-01-19 10:13:00,36.7,34.3,29.65,ENE,68,0.0,0.0,91,0.00,,---,0.00,VWS V13.00,2013-01-19 19:13:00,
2013-01-19 10:18:00,36.7,34.3,29.65,East,94,0.0,0.0,91,0.00,,---,0.00,VWS V13.00,2013-01-19 19:18:00,
2013-01-19 10:23:00,36.9,35.0,29.65,SE,141,0.0,0.0,93,0.00,,---,0.00,VWS V13.00,2013-01-19 19:23:00,
2013-01-19 10:28:00,36.9,35.0,29.65,SE,126,0.0,0.0,93,0.00,,---,0.00,VWS V13.00,2013-01-19 19:28:00,
2013-01-19 10:33:00,36.7,34.8,29.65,East,88,0.0,0.0,93,0.00,,---,0.00,VWS V13.00,2013-01-19 19:33:00,
2013-01-19 10:39:00,36.7,34.8,29.65,East,81,0.0,0.0,93,0.00,,---,0.00,VWS V13.00,2013-01-19 19:39:00,
2013-01-19 10:44:00,36.7,34.8,29.65,NE,41,0.0,0.0,93,0.00,,---,0.00,VWS V13.00,2013-01-19 19:44:00,
2013-01-19 10:49:00,36.7,35.1,29.65,SW,227,0.0,0.0,94,0.00,,---,0.00,VWS V13.00,2013-01-19 19:49:00,
2013-01-19 10:54:00,36.9,35.3,29.65,SE,141,0.0,0.0,94,0.00,,---,0.00,VWS V13.00,2013-01-19 19:54:00,
2013-01-19 11:00:00,36.7,35.1,29.65,SSE,164,0.0,0.0,94,0.00,,---,0.00,VWS V13.00,2013-01-19 20:00:00,
2013-01-19 11:05:00,36.7,35.1,29.62,SE,140,0.0,0.0,94,0.00,,---,0.00,VWS V13.00,2013-01-19 20:05:00,
2013-01-19 11:10:00,36.7,35.4,29.62,SSE,157,0.0,0.0,95,0.00,,---,0.00,VWS V13.00,2013-01-19 20:10:00,
2013-01-19 11:15:00,36.9,35.6,29.62,South,185,0.0,0.0,95,0.00,,---,0.00,VWS V13.00,2013-01-19 20:15:00,
2013-01-19 11:21:00,36.9,35.6,29.62,ENE,72,0.0,0.0,95,0.00,,---,0.00,VWS V13.00,2013-01-19 20:21:00,
2013-01-19 11:27:00,36.9,35.6,29.62,South,174,0.0,0.0,95,0.00,,---,0.00,VWS V13.00,2013-01-19 20:27:00,
2013-01-19 11:32:00,36.9,35.6,29.62,SE,135,0.0,0.0,95,0.00,,---,0.00,VWS V13.00,2013-01-19 20:32:00,
2013-01-19 11:37:00,37.0,36.0,29.62,East,82,0.0,0.0,96,0.00,,---,0.00,VWS V13.00,2013-01-19 20:37:00,
2013-01-19 11:42:00,37.0,36.0,29.62,ENE,78,0.0,0.0,96,0.00,,---,0.00,VWS V13.00,2013-01-19 20:42:00,
2013-01-19 11:47:00,37.2,36.5,29.62,East,93,0.0,0.0,97,0.00,,---,0.00,VWS V13.00,2013-01-19 20:47:00,
2013-01-19 11:52:00,37.2,36.5,29.62,ENE,73,0.0,0.0,97,0.00,,---,0.00,VWS V13.00,2013-01-19 20:52:00,
2013-01-19 11:58:00,37.4,36.6,29.62,East,92,0.0,0.0,97,0.00,,---,0.00,VWS V13.00,2013-01-19 20:58:00,
2013-01-19 12:03:00,37.4,36.6,29.62,East,87,0.0,0.0,97,0.00,,---,0.00,VWS V13.00,2013-01-19 21:03:00,
2013-01-19 12:08:00,37.4,36.6,29.62,ENE,71,0.0,0.0,97,0.00,,---,0.00,VWS V13.00,2013-01-19 21:08:00,
2013-01-19 12:13:00,37.4,36.6,29.62,ESE,114,0.0,0.0,97,0.00,,---,0.00,VWS V13.00,2013-01-19 21:13:00,
2013-01-19 12:18:00,37.4,36.6,29.62,ENE,72,0.0,0.0,97,0.00,,---,0.00,VWS V13.00,2013-01-19 21:18:00,
2013-01-19 12:23:00,37.8,37.2,29.62,ENE,63,0.0,0.0,98,0.00,,---,0.00,VWS V13.00,2013-01-19 21:23:00,
2013-01-19 12:28:00,37.9,37.4,29.62,ENE,78,0.0,0.0,98,0.00,,---,0.00,VWS V13.00,2013-01-19 21:28:00,
2013-01-19 12:33:00,37.9,37.4,29.62,ENE,78,0.0,0.0,98,0.00,,---,0.00,VWS V13.00,2013-01-19 21:33:00,
2013-01-19 12:39:00,37.9,37.4,29.62,ESE,108,0.0,0.0,98,0.00,,---,0.00,VWS V13.00,2013-01-19 21:39:00,
2013-01-19 12:44:00,38.1,37.6,29.62,ESE,108,0.0,0.0,98,0.00,,---,0.00,VWS V13.00,2013-01-19 21:44:00,
2013-01-19 12:49:00,37.9,37.4,29.62,ENE,77,0.0,0.0,98,0.00,,---,0.00,VWS V13.00,2013-01-19 21:49:00,
2013-01-19 12:54:00,38.1,37.6,29.62,ENE,59,0.0,0.0,98,0.00,,---,0.00,VWS V13.00,2013-01-19 21:54:00,
2013-01-19 12:59:00,38.1,37.6,29.62,East,99,0.0,0.0,98,0.00,,---,0.00,VWS V13.00,2013-01-19 21:59:00,
2013-01-19 13:05:00,38.1,37.6,29.62,SE,132,0.0,0.0,98,0.00,,---,0.00,VWS V13.00,2013-01-19 22:05:00,
2013-01-19 13:10:00,38.1,37.6,29.62,East,79,0.0,0.0,98,0.00,,---,0.00,VWS V13.00,2013-01-19 22:10:00,
2013-01-19 13:15:00,38.3,37.8,29.62,ENE,75,0.0,0.0,98,0.00,,---,0.00,VWS V13.00,2013-01-19 22:15:00,
2013-01-19 13:20:00,38.3,37.8,29.62,ESE,115,0.0,0.0,98,0.00,,---,0.00,VWS V13.00,2013-01-19 22:20:00,
2013-01-19 13:25:00,38.3,37.8,29.62,East,88,0.0,0.0,98,0.00,,---,0.00,VWS V13.00,2013-01-19 22:25:00,
2013-01-19 13:30:00,38.5,38.0,29.62,East,98,0.0,0.0,98,0.00,,---,0.00,VWS V13.00,2013-01-19 22:30:00,
2013-01-19 13:35:00,38.5,38.0,29.62,ESE,121,0.0,0.0,98,0.00,,---,0.00,VWS V13.00,2013-01-19 22:35:00,
2013-01-19 13:40:00,38.5,38.0,29.62,SSE,151,0.0,0.0,98,0.00,,---,0.00,VWS V13.00,2013-01-19 22:40:00,
2013-01-19 13:45:00,38.5,38.0,29.62,ESE,107,0.0,0.0,98,0.00,,---,0.00,VWS V13.00,2013-01-19 22:45:00,
2013-01-19 13:51:00,38.5,38.0,29.53,ENE,76,0.0,0.0,98,0.00,,---,0.00,VWS V13.00,2013-01-19 22:51:00,
2013-01-19 13:56:00,38.5,38.0,29.53,WNW,292,0.0,0.0,98,0.00,,---,0.00,VWS V13.00,2013-01-19 22:56:00,
2013-01-19 14:01:00,38.5,38.0,29.53,ESE,114,0.0,0.0,98,0.00,,---,0.00,VWS V13.00,2013-01-19 23:01:00,
2013-01-19 14:06:00,38.5,38.0,29.53,East,93,0.0,0.0,98,0.00,,---,0.00,VWS V13.00,2013-01-19 23:06:00,
2013-01-19 14:11:00,38.5,38.0,29.53,SE,134,0.0,0.0,98,0.00,,---,0.00,VWS V13.00,2013-01-19 23:11:00,
2013-01-19 14:17:00,38.5,38.0,29.53,ENE,70,0.0,13.2,98,0.00,,---,0.00,VWS V13.00,2013-01-19 23:17:00,
2013-01-19 14:22:00,38.7,38.2,29.53,SE,129,0.0,0.0,98,0.00,,---,0.00,VWS V13.00,2013-01-19 23:22:00,
2013-01-19 14:29:00,38.7,38.2,29.53,NE,39,0.0,10.1,98,0.00,,---,0.00,VWS V13.00,2013-01-19 23:29:00,
2013-01-19 14:34:00,38.7,38.2,29.53,ENE,72,4.5,10.1,98,0.00,,---,0.00,VWS V13.00,2013-01-19 23:34:00,
2013-01-19 14:39:00,38.8,38.3,29.53,ENE,69,0.0,10.1,98,0.00,,---,0.00,VWS V13.00,2013-01-19 23:39:00,
2013-01-19 14:44:00,38.7,38.2,29.53,ENE,66,3.1,3.1,98,0.00,,---,0.00,VWS V13.00,2013-01-19 23:44:00,
2013-01-19 14:49:00,38.8,38.3,29.53,South,184,0.0,3.1,98,0.00,,---,0.00,VWS V13.00,2013-01-19 23:49:00,
2013-01-19 14:54:00,38.8,38.3,29.53,East,87,0.0,5.4,98,0.00,,---,0.00,VWS V13.00,2013-01-19 23:54:00,
2013-01-19 14:59:00,38.8,38.3,29.53,ESE,122,12.8,12.8,98,0.00,,---,0.00,VWS V13.00,2013-01-19 23:59:00,
2013-01-19 15:04:00,38.8,38.3,29.53,SSW,196,0.0,10.5,98,0.00,,---,0.00,VWS V13.00,2013-01-20 00:04:00,
2013-01-19 15:09:00,39.0,38.5,29.53,East,92,10.5,12.3,98,0.00,,---,0.00,VWS V13.00,2013-01-20 00:09:00,
2013-01-19 15:14:00,39.0,38.5,29.53,SE,136,6.3,12.3,98,0.00,,---,0.00,VWS V13.00,2013-01-20 00:14:00,
2013-01-19 15:20:00,39.0,38.5,29.53,ESE,116,0.0,12.3,98,0.00,,---,0.00,VWS V13.00,2013-01-20 00:20:00,
2013-01-19 15:25:00,39.0,38.5,29.53,SE,136,4.9,8.1,98,0.00,,---,0.00,VWS V13.00,2013-01-20 00:25:00,
2013-01-19 15:30:00,39.2,38.7,29.53,NE,34,0.0,8.1,98,0.00,,---,0.00,VWS V13.00,2013-01-20 00:30:00,
2013-01-19 15:35:00,39.2,38.7,29.53,SSE,154,7.6,8.1,98,0.00,,---,0.00,VWS V13.00,2013-01-20 00:35:00,
2013-01-19 15:40:00,39.2,38.7,29.53,South,171,4.0,4.0,98,0.00,,---,0.00,VWS V13.00,2013-01-20 00:40:00,
2013-01-19 15:45:00,39.2,38.7,29.53,East,85,5.4,5.4,98,0.00,,---,0.00,VWS V13.00,2013-01-20 00:45:00,
2013-01-19 15:50:00,39.2,38.7,29.53,ESE,103,0.0,6.7,98,0.00,,---,0.00,VWS V13.00,2013-01-20 00:50:00,
2013-01-19 15:55:00,39.2,38.7,29.53,South,173,5.8,6.7,98,0.00,,---,0.00,VWS V13.00,2013-01-20 00:55:00,
2013-01-19 16:00:00,39.2,38.7,29.53,SE,125,3.1,3.1,98,0.00,,---,0.00,VWS V13.00,2013-01-20 01:00:00,
2013-01-19 16:06:00,39.2,38.7,29.53,East,86,0.0,3.1,98,0.00,,---,0.00,VWS V13.00,2013-01-20 01:06:00,
2013-01-19 16:11:00,39.2,38.7,29.53,SSE,167,2.7,13.2,98,0.00,,---,0.00,VWS V13.00,2013-01-20 01:11:00,
2013-01-19 16:16:00,39.2,38.7,29.53,SSE,150,0.0,13.2,98,0.00,,---,0.00,VWS V13.00,2013-01-20 01:16:00,
2013-01-19 16:21:00,39.4,38.9,29.53,SSE,153,0.0,0.0,98,0.00,,---,0.00,VWS V13.00,2013-01-20 01:21:00,
2013-01-19 16:26:00,39.4,38.9,29.53,SSE,159,0.0,8.7,98,0.00,,---,0.00,VWS V13.00,2013-01-20 01:26:00,
2013-01-19 16:32:00,39.4,38.9,29.53,SSE,149,0.0,8.7,98,0.00,,---,0.00,VWS V13.00,2013-01-20 01:32:00,
2013-01-19 16:37:00,39.4,38.9,29.53,NE,55,0.0,10.5,98,0.00,,---,0.00,VWS V13.00,2013-01-20 01:37:00,
2013-01-19 16:42:00,39.4,38.9,29.53,East,87,0.0,0.0,98,0.00,,---,0.00,VWS V13.00,2013-01-20 01:42:00,
2013-01-19 16:47:00,39.4,38.9,29.53,East,89,0.0,5.8,98,0.00,,---,0.00,VWS V13.00,2013-01-20 01:47:00,
2013-01-19 16:52:00,39.4,38.9,29.53,South,178,0.0,5.8,98,0.00,,---,0.00,VWS V13.00,2013-01-20 01:52:00,
2013-01-19 16:57:00,39.4,38.9,29.53,ESE,105,0.0,5.8,98,0.00,,---,0.00,VWS V13.00,2013-01-20 01:57:00,
2013-01-19 17:02:00,39.4,38.9,29.53,SE,133,0.0,0.0,98,0.00,,---,0.00,VWS V13.00,2013-01-20 02:02:00,
2013-01-19 17:07:00,39.4,38.9,29.53,SE,133,0.0,0.0,98,0.00,,---,0.00,VWS V13.00,2013-01-20 02:07:00,
2013-01-19 17:12:00,39.6,39.0,29.53,ENE,71,0.0,0.0,98,0.00,,---,0.00,VWS V13.00,2013-01-20 02:12:00,
2013-01-19 17:17:00,39.6,39.0,29.53,ENE,70,0.0,0.0,98,0.00,,---,0.00,VWS V13.00,2013-01-20 02:17:00,
2013-01-19 17:22:00,39.6,39.0,29.53,WSW,246,0.0,0.0,98,0.00,,---,0.00,VWS V13.00,2013-01-20 02:22:00,
2013-01-19 17:28:00,39.4,38.9,29.53,SSW,200,0.0,8.7,98,0.00,,---,0.00,VWS V13.00,2013-01-20 02:28:00,
2013-01-19 17:33:00,39.4,38.9,29.53,ENE,75,0.0,8.7,98,0.00,,---,0.00,VWS V13.00,2013-01-20 02:33:00,
2013-01-19 17:38:00,39.4,38.9,29.53,SSE,152,8.7,8.7,98,0.00,,---,0.00,VWS V13.00,2013-01-20 02:38:00,
2013-01-19 17:43:00,39.4,38.9,29.53,SE,140,0.0,0.0,98,0.00,,---,0.00,VWS V13.00,2013-01-20 02:43:00,
2013-01-19 17:48:00,39.4,38.9,29.41,SE,130,0.0,12.8,98,0.00,,---,0.00,VWS V13.00,2013-01-20 02:48:00,
2013-01-19 17:53:00,39.4,38.9,29.41,SE,136,4.9,12.8,98,0.00,,---,0.00,VWS V13.00,2013-01-20 02:53:00,
2013-01-19 17:59:00,39.2,38.7,29.41,East,79,0.0,12.8,98,0.00,,---,0.00,VWS V13.00,2013-01-20 02:59:00,
2013-01-19 18:04:00,39.2,38.7,29.41,South,176,0.0,10.5,98,0.00,,---,0.00,VWS V13.00,2013-01-20 03:04:00,
2013-01-19 18:09:00,39.2,38.7,29.41,East,90,0.0,10.5,98,0.00,,---,0.00,VWS V13.00,2013-01-20 03:09:00,
2013-01-19 18:14:00,39.0,38.2,29.41,NE,56,0.0,10.5,97,0.00,,---,0.00,VWS V13.00,2013-01-20 03:14:00,
2013-01-19 18:19:00,38.8,37.8,29.41,SE,135,0.0,10.5,96,0.00,,---,0.00,VWS V13.00,2013-01-20 03:19:00,
2013-01-19 18:24:00,38.8,37.8,29.41,ESE,107,0.0,0.0,96,0.00,,---,0.00,VWS V13.00,2013-01-20 03:24:00,
2013-01-19 18:29:00,38.8,37.8,29.41,SE,142,6.3,8.7,96,0.00,,---,0.00,VWS V13.00,2013-01-20 03:29:00,
2013-01-19 18:35:00,38.8,37.5,29.41,NE,43,0.0,8.7,95,0.00,,---,0.00,VWS V13.00,2013-01-20 03:35:00,
2013-01-19 18:40:00,38.8,37.5,29.41,SE,145,0.0,8.7,95,0.00,,---,0.00,VWS V13.00,2013-01-20 03:40:00,
2013-01-19 18:45:00,39.0,37.7,29.41,SSE,147,0.0,8.1,95,0.00,,---,0.00,VWS V13.00,2013-01-20 03:45:00,
2013-01-19 18:50:00,39.0,37.7,29.41,ENE,60,2.2,8.1,95,0.00,,---,0.00,VWS V13.00,2013-01-20 03:50:00,
2013-01-19 18:55:00,39.0,37.7,29.41,East,98,0.0,8.1,95,0.00,,---,0.00,VWS V13.00,2013-01-20 03:55:00,
2013-01-19 19:00:00,39.2,37.9,29.41,East,81,0.0,8.1,95,0.00,,---,0.00,VWS V13.00,2013-01-20 04:00:00,
2013-01-19 19:05:00,39.2,37.9,29.41,SE,142,0.0,0.0,95,0.00,,---,0.00,VWS V13.00,2013-01-20 04:05:00,
2013-01-19 19:10:00,39.2,37.9,29.41,ESE,115,0.0,5.8,95,0.00,,---,0.00,VWS V13.00,2013-01-20 04:10:00,
2013-01-19 19:15:00,39.2,37.9,29.41,East,88,0.0,5.8,95,0.00,,---,0.00,VWS V13.00,2013-01-20 04:15:00,
2013-01-19 19:20:00,39.2,37.9,29.41,NE,43,0.0,0.0,95,0.00,,---,0.00,VWS V13.00,2013-01-20 04:20:00,
2013-01-19 19:25:00,39.2,37.9,29.41,NE,40,0.0,0.0,95,0.00,,---,0.00,VWS V13.00,2013-01-20 04:25:00,
2013-01-19 19:31:00,39.4,38.3,29.41,East,97,0.0,0.0,96,0.00,,---,0.00,VWS V13.00,2013-01-20 04:31:00,
2013-01-19 19:36:00,39.4,38.3,29.41,SE,125,0.0,0.0,96,0.00,,---,0.00,VWS V13.00,2013-01-20 04:36:00,
2013-01-19 19:41:00,39.4,38.3,29.41,East,94,0.0,0.0,96,0.00,,---,0.00,VWS V13.00,2013-01-20 04:41:00,
2013-01-19 19:46:00,39.4,38.3,29.41,ESE,120,0.0,0.0,96,0.00,,---,0.00,VWS V13.00,2013-01-20 04:46:00,
2013-01-19 19:51:00,39.4,38.6,29.41,East,86,0.0,0.0,97,0.00,,---,0.00,VWS V13.00,2013-01-20 04:51:00,
2013-01-19 19:56:00,39.4,38.6,29.41,East,92,0.0,0.0,97,0.00,,---,0.00,VWS V13.00,2013-01-20 04:56:00,
2013-01-19 20:01:00,39.6,38.8,29.41,SE,130,0.0,0.0,97,0.00,,---,0.00,VWS V13.00,2013-01-20 05:01:00,
2013-01-19 20:03:00,39.6,38.8,29.41,SSW,195,0.0,4.9,97,0.00,,---,0.00,VWS V13.00,2013-01-20 05:03:00,
2013-01-19 20:08:00,39.4,38.6,29.41,East,86,0.0,4.9,97,0.00,,---,0.00,VWS V13.00,2013-01-20 05:08:00,
2013-01-19 20:13:00,39.7,39.0,29.41,SSE,162,0.0,4.9,97,0.00,,---,0.00,VWS V13.00,2013-01-20 05:13:00,
2013-01-19 20:18:00,39.7,39.2,29.41,South,175,5.8,5.8,98,0.00,,---,0.00,VWS V13.00,2013-01-20 05:18:00,
2013-01-19 20:23:00,39.7,39.2,29.41,SSW,202,0.0,0.0,98,0.00,,---,0.00,VWS V13.00,2013-01-20 05:23:00,
2013-01-19 20:28:00,39.7,39.2,29.41,SW,218,0.0,0.0,98,0.00,,---,0.00,VWS V13.00,2013-01-20 05:28:00,
2013-01-19 20:33:00,39.9,39.4,29.41,SE,138,0.0,0.0,98,0.00,,---,0.00,VWS V13.00,2013-01-20 05:33:00,
2013-01-19 20:38:00,39.9,39.4,29.41,SSW,195,0.0,0.0,98,0.00,,---,0.00,VWS V13.00,2013-01-20 05:38:00,
2013-01-19 20:43:00,39.9,39.4,29.38,SSE,160,0.0,0.0,98,0.00,,---,0.00,VWS V13.00,2013-01-20 05:43:00,
2013-01-19 20:48:00,39.9,39.4,29.38,South,181,0.0,5.8,98,0.00,,---,0.00,VWS V13.00,2013-01-20 05:48:00,
2013-01-19 20:53:00,39.9,39.4,29.38,SSW,192,0.0,5.8,98,0.00,,---,0.00,VWS V13.00,2013-01-20 05:53:00,
2013-01-19 20:58:00,39.9,39.4,29.38,South,189,0.0,5.8,98,0.00,,---,0.00,VWS V13.00,2013-01-20 05:58:00,
2013-01-19 21:03:00,39.7,39.2,29.38,South,184,0.0,5.4,98,0.00,,---,0.00,VWS V13.00,2013-01-20 06:03:00,
2013-01-19 21:08:00,39.7,39.2,29.38,South,181,0.0,5.4,98,0.00,,---,0.00,VWS V13.00,2013-01-20 06:08:00,
2013-01-19 21:13:00,39.7,39.2,29.38,SW,215,0.0,5.4,98,0.00,,---,0.00,VWS V13.00,2013-01-20 06:13:00,
2013-01-19 21:18:00,39.7,39.2,29.38,SSW,204,0.0,5.4,98,0.00,,---,0.00,VWS V13.00,2013-01-20 06:18:00,
2013-01-19 21:23:00,39.6,39.0,29.38,South,182,0.0,2.7,98,0.00,,---,0.00,VWS V13.00,2013-01-20 06:23:00,
2013-01-19 21:28:00,39.6,39.0,29.38,SSW,197,0.0,2.7,98,0.00,,---,0.00,VWS V13.00,2013-01-20 06:28:00,
2013-01-19 21:33:00,39.6,39.0,29.38,SSW,197,0.0,4.0,98,0.00,,---,0.00,VWS V13.00,2013-01-20 06:33:00,
2013-01-19 21:38:00,39.6,39.0,29.38,SSW,204,0.0,4.0,98,0.00,,---,0.00,VWS V13.00,2013-01-20 06:38:00,
2013-01-19 21:43:00,39.6,39.0,29.38,WSW,237,0.0,0.0,98,0.00,,---,0.00,VWS V13.00,2013-01-20 06:43:00,
2013-01-19 21:48:00,39.2,38.7,29.38,SW,225,0.0,0.0,98,0.00,,---,0.00,VWS V13.00,2013-01-20 06:48:00,
2013-01-19 21:53:00,39.2,38.7,29.38,SW,223,0.0,0.0,98,0.00,,---,0.00,VWS V13.00,2013-01-20 06:53:00,
2013-01-19 21:58:00,39.2,38.7,29.38,SW,217,0.0,0.0,98,0.00,,---,0.00,VWS V13.00,2013-01-20 06:58:00,
2013-01-19 22:03:00,39.2,38.7,29.38,SW,225,0.0,0.0,98,0.00,,---,0.00,VWS V13.00,2013-01-20 07:03:00,
2013-01-19 22:08:00,38.8,38.3,29.38,WSW,248,0.0,0.0,98,0.00,,---,0.00,VWS V13.00,2013-01-20 07:08:00,
2013-01-19 22:13:00,38.8,38.3,29.38,SW,226,0.0,0.0,98,0.00,,---,0.00,VWS V13.00,2013-01-20 07:13:00,
2013-01-19 22:18:00,38.7,38.2,29.38,SW,219,0.0,0.0,98,0.00,,---,0.00,VWS V13.00,2013-01-20 07:18:00,
2013-01-19 22:23:00,38.7,38.2,29.38,SW,222,0.0,0.0,98,0.00,,---,0.00,VWS V13.00,2013-01-20 07:23:00,
2013-01-19 22:28:00,38.7,38.2,29.38,SW,229,0.0,0.0,98,0.00,,---,0.00,VWS V13.00,2013-01-20 07:28:00,
2013-01-19 22:33:00,38.5,38.0,29.38,SSW,211,0.0,0.0,98,0.00,,---,0.00,VWS V13.00,2013-01-20 07:33:00,
2013-01-19 22:38:00,38.5,38.0,29.38,SSW,202,0.0,0.0,98,0.00,,---,0.00,VWS V13.00,2013-01-20 07:38:00,
2013-01-19 22:43:00,38.5,38.0,29.38,SW,217,0.0,0.0,98,0.00,,---,0.00,VWS V13.00,2013-01-20 07:43:00,
2013-01-19 22:48:00,38.5,38.0,29.38,WSW,237,0.0,0.0,98,0.00,,---,0.00,VWS V13.00,2013-01-20 07:48:00,
2013-01-19 22:53:00,38.5,38.0,29.38,SW,226,0.0,0.0,98,0.00,,---,0.00,VWS V13.00,2013-01-20 07:53:00,
2013-01-19 22:58:00,38.5,38.0,29.38,SW,234,0.0,0.0,98,0.00,,---,0.00,VWS V13.00,2013-01-20 07:58:00,
2013-01-19 23:03:00,38.3,37.8,29.38,WSW,242,0.0,0.0,98,0.00,,---,0.00,VWS V13.00,2013-01-20 08:03:00,
2013-01-19 23:08:00,38.3,37.8,29.38,SW,231,0.0,0.0,98,0.00,,---,0.00,VWS V13.00,2013-01-20 08:08:00,
2013-01-19 23:13:00,38.3,37.8,29.38,SW,223,0.0,0.0,98,0.00,,---,0.00,VWS V13.00,2013-01-20 08:13:00,
2013-01-19 23:18:00,38.3,37.8,29.38,WSW,245,0.0,0.0,98,0.00,,---,0.00,VWS V13.00,2013-01-20 08:18:00,
2013-01-19 23:23:00,38.1,37.6,29.38,SW,232,0.0,0.0,98,0.00,,---,0.00,VWS V13.00,2013-01-20 08:23:00,
2013-01-19 23:28:00,38.1,37.6,29.38,SW,225,0.0,0.0,98,0.00,,---,0.00,VWS V13.00,2013-01-20 08:28:00,
2013-01-19 23:33:00,37.9,37.4,29.38,SSW,199,0.0,0.0,98,0.00,,---,0.00,VWS V13.00,2013-01-20 08:33:00,
2013-01-19 23:38:00,37.9,37.4,29.38,WSW,238,0.0,0.0,98,0.00,,---,0.00,VWS V13.00,2013-01-20 08:38:00,
2013-01-19 23:43:00,37.9,37.4,29.38,SW,233,0.0,0.0,98,0.00,,---,0.00,VWS V13.00,2013-01-20 08:43:00,
2013-01-19 23:48:00,37.9,37.4,29.38,SSW,210,0.0,0.0,98,0.00,,---,0.00,VWS V13.00,2013-01-20 08:48:00,
2013-01-19 23:53:00,37.9,37.4,29.38,WSW,245,0.0,0.0,98,0.00,,---,0.00,VWS V13.00,2013-01-20 08:53:00,
2013-01-19 23:58:00,37.9,37.4,29.38,West,259,0.0,4.0,98,0.00,,---,0.00,VWS V13.00,2013-01-20 08:58:00,